Time;durP1;ratioP1;P1;durP2;ratioP2;P2;SDS_P1;SDS_P2;PMS_P1;PMS_P2;Temp;Humidity;BMP_temperature;BMP_pressure;BME280_temperature;BME280_humidity;BME280_pressure;Samples;Min_cycle;Max_cycle;Signal;HPM_P1;HPM_P2
2023/01/31 00:01:39;;;;;;;2.55;1.10;;;3.30;99.90;;;;;;5061019;28;20155;-67
2023/01/31 00:04:11;;;;;;;2.65;0.52;;;3.30;99.90;;;;;;5055466;28;20350;-66
2023/01/31 00:06:43;;;;;;;4.15;0.63;;;3.30;99.90;;;;;;5055211;28;20075;-66
2023/01/31 00:09:11;;;;;;;5.95;0.50;;;3.30;99.90;;;;;;5059314;28;20059;-68
2023/01/31 00:11:38;;;;;;;6.38;0.98;;;3.30;99.90;;;;;;5062472;28;20059;-69
2023/01/31 00:14:06;;;;;;;2.15;0.70;;;3.30;99.90;;;;;;5061950;28;20431;-66
2023/01/31 00:16:33;;;;;;;2.63;1.48;;;3.20;99.90;;;;;;5057348;28;20054;-65
2023/01/31 00:19:01;;;;;;;6.28;0.77;;;3.20;99.90;;;;;;5052028;28;20965;-64
2023/01/31 00:21:30;;;;;;;4.18;0.65;;;3.20;99.90;;;;;;5062062;28;20053;-63
2023/01/31 00:23:57;;;;;;;6.63;1.02;;;3.20;99.90;;;;;;5058809;28;20051;-69
2023/01/31 00:26:29;;;;;;;10.73;1.20;;;3.20;99.90;;;;;;5063419;28;20493;-64
2023/01/31 00:28:58;;;;;;;2.38;1.00;;;3.20;99.90;;;;;;5059540;28;20104;-66
2023/01/31 00:31:27;;;;;;;8.00;0.77;;;3.20;99.90;;;;;;5061177;28;20049;-67
2023/01/31 00:33:55;;;;;;;2.63;0.98;;;3.20;99.90;;;;;;5041647;28;20044;-69
2023/01/31 00:36:27;;;;;;;5.25;1.38;;;3.20;99.90;;;;;;5055035;28;20147;-66
2023/01/31 00:38:57;;;;;;;2.03;0.63;;;3.20;99.90;;;;;;5052511;28;20493;-65
2023/01/31 00:41:27;;;;;;;3.45;0.77;;;3.20;99.90;;;;;;5054620;28;20076;-63
2023/01/31 00:43:54;;;;;;;7.33;1.07;;;3.20;99.90;;;;;;5054421;28;20379;-69
2023/01/31 00:46:22;;;;;;;3.90;0.40;;;3.20;99.90;;;;;;5059138;28;20048;-66
2023/01/31 00:48:50;;;;;;;5.50;1.10;;;3.10;99.90;;;;;;5058757;28;20049;-69
2023/01/31 00:51:18;;;;;;;4.75;0.65;;;3.10;99.90;;;;;;5058082;28;20040;-71
2023/01/31 00:53:45;;;;;;;1.40;0.75;;;3.10;99.90;;;;;;5063593;28;20173;-68
2023/01/31 00:56:15;;;;;;;4.20;0.68;;;3.10;99.90;;;;;;5058057;28;20044;-64
2023/01/31 00:58:43;;;;;;;3.50;0.47;;;3.10;99.90;;;;;;5061654;28;20512;-71
2023/01/31 01:01:17;;;;;;;3.53;1.38;;;3.10;99.90;;;;;;5060625;28;20091;-66
2023/01/31 01:03:45;;;;;;;1.40;0.50;;;3.00;99.90;;;;;;5056048;28;20056;-64
2023/01/31 01:06:13;;;;;;;4.20;0.75;;;3.00;99.90;;;;;;5062816;28;20052;-65
2023/01/31 01:08:42;;;;;;;3.20;0.45;;;3.10;99.90;;;;;;5057083;28;20068;-66
2023/01/31 01:11:15;;;;;;;5.05;0.65;;;3.00;99.90;;;;;;5060263;28;20140;-69
2023/01/31 01:13:43;;;;;;;1.15;0.77;;;3.00;99.90;;;;;;5055015;28;20068;-65
2023/01/31 01:16:13;;;;;;;3.95;0.98;;;3.00;99.90;;;;;;5062325;28;20052;-64
2023/01/31 01:18:41;;;;;;;6.82;1.40;;;3.00;99.90;;;;;;5069694;28;20127;-65
2023/01/31 01:21:17;;;;;;;5.07;0.73;;;3.00;99.90;;;;;;5058857;28;20121;-67
2023/01/31 01:23:46;;;;;;;1.98;0.88;;;3.00;99.90;;;;;;5057272;28;20131;-65
2023/01/31 01:26:21;;;;;;;2.78;1.10;;;3.00;99.90;;;;;;5062602;28;20843;-66
2023/01/31 01:28:49;;;;;;;1.73;0.50;;;3.00;99.90;;;;;;5055767;28;20136;-67
2023/01/31 01:31:17;;;;;;;4.10;0.60;;;2.90;99.90;;;;;;5056831;28;20058;-69
2023/01/31 01:33:46;;;;;;;1.80;1.00;;;3.00;99.90;;;;;;5059849;28;20049;-66
2023/01/31 01:36:16;;;;;;;4.97;0.82;;;3.00;99.90;;;;;;5059543;28;20068;-65
2023/01/31 01:38:44;;;;;;;2.38;0.80;;;3.00;99.90;;;;;;5055108;28;20390;-66
2023/01/31 01:41:12;;;;;;;3.65;0.40;;;2.90;99.90;;;;;;5062493;28;20064;-65
2023/01/31 01:43:51;;;;;;;1.38;0.45;;;3.00;99.90;;;;;;5065561;28;20520;-64
2023/01/31 01:46:38;;;;;;;2.22;0.70;;;2.90;99.90;;;;;;5063578;28;20137;-73
2023/01/31 01:49:22;;;;;;;4.28;0.40;;;2.90;99.90;;;;;;5060271;28;20623;-71
2023/01/31 01:51:51;;;;;;;3.22;0.40;;;2.90;99.90;;;;;;5063085;28;20143;-66
2023/01/31 01:54:26;;;;;;;6.78;0.65;;;2.90;99.90;;;;;;5062504;28;20123;-68
2023/01/31 01:57:00;;;;;;;4.55;1.40;;;2.90;99.90;;;;;;5076636;28;20147;-69
2023/01/31 01:59:33;;;;;;;4.68;0.70;;;2.90;99.90;;;;;;5063189;28;20044;-66
2023/01/31 02:02:02;;;;;;;5.03;0.77;;;2.90;99.90;;;;;;5055825;28;20442;-66
2023/01/31 02:04:35;;;;;;;3.15;0.60;;;2.90;99.90;;;;;;5064116;28;20122;-65
2023/01/31 02:07:02;;;;;;;1.17;0.80;;;2.90;99.90;;;;;;5059345;28;20791;-65
2023/01/31 02:09:51;;;;;;;3.60;0.22;;;2.90;99.90;;;;;;5059396;28;20044;-66
2023/01/31 02:12:19;;;;;;;4.75;0.88;;;2.90;99.90;;;;;;5075931;28;20060;-70
2023/01/31 02:14:47;;;;;;;4.05;0.95;;;2.90;99.90;;;;;;5059840;28;20231;-66
2023/01/31 02:17:16;;;;;;;1.98;0.60;;;2.90;99.90;;;;;;5061861;28;20048;-67
2023/01/31 02:20:05;;;;;;;5.55;1.02;;;2.90;99.90;;;;;;5064358;28;20336;-71
2023/01/31 02:23:15;;;;;;;0.98;0.52;;;2.90;99.90;;;;;;5065586;28;20087;-67
2023/01/31 02:26:00;;;;;;;5.47;0.60;;;2.90;99.90;;;;;;5060720;28;20106;-66
2023/01/31 02:28:51;;;;;;;2.47;0.32;;;2.90;99.90;;;;;;5056146;28;20052;-65
2023/01/31 02:31:36;;;;;;;2.50;0.57;;;2.90;99.90;;;;;;5058077;28;20110;-69
2023/01/31 02:34:07;;;;;;;2.35;0.90;;;2.80;99.90;;;;;;5056084;28;20414;-64
2023/01/31 02:36:44;;;;;;;3.22;0.73;;;2.80;99.90;;;;;;5060762;28;20413;-69
2023/01/31 02:39:37;;;;;;;2.63;0.40;;;2.80;99.90;;;;;;5060140;28;20502;-66
2023/01/31 02:42:28;;;;;;;3.78;0.77;;;2.80;99.90;;;;;;5053485;28;20144;-64
2023/01/31 02:45:03;;;;;;;1.30;0.45;;;2.80;99.90;;;;;;5054148;28;20053;-69
2023/01/31 02:47:49;;;;;;;10.35;1.20;;;2.80;99.90;;;;;;5071469;28;20076;-65
2023/01/31 02:50:40;;;;;;;10.25;1.02;;;2.80;99.90;;;;;;5057358;28;20050;-68
2023/01/31 02:53:13;;;;;;;0.82;0.38;;;2.80;99.90;;;;;;5045756;28;20104;-65
2023/01/31 02:58:40;;;;;;;1.73;0.50;;;2.80;99.90;;;;;;5060879;28;20142;-66
2023/01/31 03:01:14;;;;;;;3.28;0.82;;;2.80;99.90;;;;;;5060262;28;20041;-65
2023/01/31 03:03:41;;;;;;;3.80;1.13;;;2.80;99.90;;;;;;5058014;28;20045;-68
2023/01/31 03:06:23;;;;;;;2.58;0.85;;;2.80;99.90;;;;;;5056545;28;20048;-65
2023/01/31 03:09:05;;;;;;;3.05;0.90;;;2.80;99.90;;;;;;5067089;28;20113;-66
2023/01/31 03:11:46;;;;;;;2.97;0.68;;;2.80;99.90;;;;;;5060351;28;20062;-70
2023/01/31 03:14:28;;;;;;;;;;;2.80;99.90;;;;;;5062507;28;20477;-65
2023/01/31 03:20:01;;;;;;;2.72;0.40;;;2.70;99.90;;;;;;5049080;28;20865;-65
2023/01/31 03:22:34;;;;;;;2.85;0.70;;;2.70;99.90;;;;;;5056464;28;20213;-66
2023/01/31 03:25:04;;;;;;;1.00;0.30;;;2.70;99.90;;;;;;5073760;28;20044;-64
2023/01/31 03:27:33;;;;;;;1.48;0.85;;;2.80;99.90;;;;;;5062875;28;20056;-66
2023/01/31 03:30:12;;;;;;;1.67;0.43;;;2.70;99.90;;;;;;5058894;28;20132;-71
2023/01/31 03:32:47;;;;;;;3.70;1.38;;;2.70;99.90;;;;;;5053394;28;20143;-64
2023/01/31 03:35:20;;;;;;;2.60;0.57;;;2.70;99.90;;;;;;5058671;28;20397;-67
2023/01/31 03:38:07;;;;;;;4.03;1.10;;;2.70;99.90;;;;;;5051247;28;20509;-65
2023/01/31 03:40:40;;;;;;;6.25;0.50;;;2.70;99.90;;;;;;5057261;28;20155;-72
2023/01/31 03:43:30;;;;;;;4.28;0.30;;;2.70;99.90;;;;;;5058043;28;20074;-64
2023/01/31 03:46:15;;;;;;;4.15;0.77;;;2.70;99.90;;;;;;5058945;28;20061;-63
2023/01/31 03:48:47;;;;;;;2.78;0.45;;;2.70;99.90;;;;;;5058220;28;20167;-66
2023/01/31 03:51:20;;;;;;;2.72;0.73;;;2.70;99.90;;;;;;5058848;28;20062;-66
2023/01/31 03:53:57;;;;;;;5.40;1.02;;;2.70;99.90;;;;;;5061758;28;20052;-62
2023/01/31 03:56:46;;;;;;;3.30;0.70;;;2.70;99.90;;;;;;5077271;28;20075;-65
2023/01/31 03:59:19;;;;;;;0.63;0.50;;;2.70;99.90;;;;;;5058958;28;20075;-65
2023/01/31 04:01:50;;;;;;;3.33;0.50;;;2.70;99.90;;;;;;5058321;28;20106;-63
2023/01/31 04:04:24;;;;;;;8.05;0.98;;;2.80;99.90;;;;;;5061224;28;20151;-68
2023/01/31 04:06:51;;;;;;;13.88;1.70;;;2.70;99.90;;;;;;5055925;28;20051;-66
2023/01/31 04:09:19;;;;;;;1.92;0.73;;;2.70;99.90;;;;;;5060358;28;20041;-63
2023/01/31 04:11:49;;;;;;;1.25;0.47;;;2.70;99.90;;;;;;5060199;28;20056;-63
2023/01/31 04:14:17;;;;;;;1.20;0.40;;;2.70;99.90;;;;;;5063124;28;20058;-63
2023/01/31 04:16:44;;;;;;;2.45;1.00;;;2.70;99.90;;;;;;5055479;28;20080;-67
2023/01/31 04:19:11;;;;;;;4.65;0.65;;;2.70;99.90;;;;;;5061224;28;20482;-64
2023/01/31 04:21:37;;;;;;;3.40;0.80;;;2.70;99.90;;;;;;5059888;28;20045;-65
2023/01/31 04:24:05;;;;;;;3.15;0.68;;;2.70;99.90;;;;;;5063711;28;20051;-64
2023/01/31 04:26:31;;;;;;;3.60;0.60;;;2.70;99.90;;;;;;5063274;28;20413;-65
2023/01/31 04:28:59;;;;;;;3.72;0.65;;;2.70;99.90;;;;;;5058186;28;20048;-64
2023/01/31 04:31:26;;;;;;;1.40;0.45;;;2.70;99.90;;;;;;5058154;28;20489;-65
2023/01/31 04:33:52;;;;;;;8.38;0.85;;;2.60;99.90;;;;;;5060182;28;20049;-65
2023/01/31 04:36:19;;;;;;;2.00;0.30;;;2.60;99.90;;;;;;5063738;28;20045;-65
2023/01/31 04:38:46;;;;;;;3.70;0.60;;;2.60;99.90;;;;;;5061435;28;20048;-64
2023/01/31 04:41:13;;;;;;;1.08;0.63;;;2.60;99.90;;;;;;5060796;28;20045;-64
2023/01/31 04:43:40;;;;;;;1.95;0.57;;;2.60;99.90;;;;;;5059226;28;20049;-67
2023/01/31 04:46:07;;;;;;;3.78;0.70;;;2.60;99.90;;;;;;5060168;28;20461;-64
2023/01/31 04:48:34;;;;;;;5.50;1.15;;;2.60;99.90;;;;;;5058008;28;20048;-68
2023/01/31 04:51:02;;;;;;;3.80;0.40;;;2.60;99.90;;;;;;5058380;28;20555;-65
2023/01/31 04:53:29;;;;;;;3.58;1.00;;;2.60;99.90;;;;;;5062223;28;20048;-65
2023/01/31 04:55:55;;;;;;;2.65;0.40;;;2.60;99.90;;;;;;5058912;28;20143;-64
2023/01/31 04:58:22;;;;;;;2.72;0.40;;;2.60;99.90;;;;;;5062979;28;20049;-64
2023/01/31 05:00:49;;;;;;;2.92;0.55;;;2.60;99.90;;;;;;5054068;28;20139;-68
2023/01/31 05:03:16;;;;;;;2.22;0.30;;;2.60;99.90;;;;;;5061237;28;20110;-66
2023/01/31 05:05:43;;;;;;;2.08;0.73;;;2.60;99.90;;;;;;5061231;28;20108;-69
2023/01/31 05:08:10;;;;;;;6.82;1.02;;;2.60;99.90;;;;;;5062048;28;20135;-64
2023/01/31 05:10:38;;;;;;;4.30;0.75;;;2.60;99.90;;;;;;5062969;28;20135;-64
2023/01/31 05:13:06;;;;;;;4.50;0.70;;;2.50;99.90;;;;;;5061574;28;20119;-65
2023/01/31 05:15:33;;;;;;;2.78;0.88;;;2.50;99.90;;;;;;5065643;28;20075;-65
2023/01/31 05:18:03;;;;;;;3.67;0.52;;;2.50;99.90;;;;;;5062762;28;20036;-66
2023/01/31 05:20:35;;;;;;;;;;;2.50;99.90;;;;;;5062924;28;20075;-66
2023/01/31 05:23:02;;;;;;;1.98;1.02;;;2.50;99.90;;;;;;5064474;28;19924;-65
2023/01/31 05:25:30;;;;;;;3.38;0.50;;;2.50;99.90;;;;;;5065570;28;20056;-65
2023/01/31 05:27:57;;;;;;;3.60;0.70;;;2.50;99.90;;;;;;5065128;28;20057;-64
2023/01/31 05:30:24;;;;;;;4.22;0.70;;;2.50;99.90;;;;;;5064212;28;20154;-67
2023/01/31 05:32:51;;;;;;;3.13;0.50;;;2.50;99.90;;;;;;5062570;28;20052;-64
2023/01/31 05:35:18;;;;;;;2.97;0.93;;;2.50;99.90;;;;;;5061781;28;20036;-64
2023/01/31 05:37:45;;;;;;;4.38;0.52;;;2.50;99.90;;;;;;5066120;28;20066;-64
2023/01/31 05:40:15;;;;;;;2.55;0.38;;;2.50;99.90;;;;;;5063750;28;20536;-65
2023/01/31 05:42:42;;;;;;;7.17;0.93;;;2.50;99.90;;;;;;5057376;28;20044;-72
2023/01/31 05:45:10;;;;;;;4.90;1.35;;;2.50;99.90;;;;;;5064872;28;20055;-66
2023/01/31 05:47:37;;;;;;;4.45;0.57;;;2.50;99.90;;;;;;5064905;28;20055;-69
2023/01/31 05:50:04;;;;;;;4.68;0.45;;;2.50;99.90;;;;;;5065504;28;20048;-68
2023/01/31 05:52:31;;;;;;;1.23;0.60;;;2.50;99.90;;;;;;5060411;28;20045;-66
2023/01/31 05:54:58;;;;;;;4.40;0.95;;;2.50;99.90;;;;;;5062633;28;20113;-65
2023/01/31 05:57:26;;;;;;;5.15;0.57;;;2.50;99.90;;;;;;5064781;28;20048;-67
2023/01/31 05:59:52;;;;;;;1.35;0.60;;;2.40;99.90;;;;;;5059451;28;20056;-68
2023/01/31 06:02:19;;;;;;;5.30;2.00;;;2.50;99.90;;;;;;5061032;28;20603;-67
2023/01/31 06:04:46;;;;;;;3.35;1.17;;;2.50;99.90;;;;;;5064182;28;20596;-65
2023/01/31 06:07:13;;;;;;;1.50;0.98;;;2.50;99.90;;;;;;5060335;28;20114;-64
2023/01/31 06:09:40;;;;;;;3.28;0.70;;;2.50;99.90;;;;;;5063956;28;20393;-66
2023/01/31 06:12:13;;;;;;;4.57;0.60;;;2.50;99.90;;;;;;5061694;28;20060;-65
2023/01/31 06:14:40;;;;;;;4.07;0.70;;;2.50;99.90;;;;;;5061734;28;20086;-66
2023/01/31 06:17:07;;;;;;;0.65;0.35;;;2.50;99.90;;;;;;5059678;28;20255;-65
2023/01/31 06:19:34;;;;;;;3.17;0.40;;;2.40;99.90;;;;;;5064424;28;20348;-68
2023/01/31 06:22:01;;;;;;;3.70;0.90;;;2.40;99.90;;;;;;5063279;28;20056;-64
2023/01/31 06:24:28;;;;;;;6.70;1.00;;;2.40;99.90;;;;;;5063785;28;20083;-67
2023/01/31 06:26:55;;;;;;;2.67;0.70;;;2.40;99.90;;;;;;5060272;28;20059;-70
2023/01/31 06:29:21;;;;;;;6.82;1.08;;;2.40;99.90;;;;;;5061579;28;20091;-65
2023/01/31 06:31:48;;;;;;;3.45;0.65;;;2.40;99.90;;;;;;5063736;28;20048;-64
2023/01/31 06:34:15;;;;;;;5.15;0.88;;;2.40;99.90;;;;;;5063552;28;20047;-64
2023/01/31 06:36:42;;;;;;;4.18;0.70;;;2.40;99.90;;;;;;5062227;28;20048;-67
2023/01/31 06:39:12;;;;;;;4.63;1.15;;;2.40;99.90;;;;;;5064348;28;20733;-64
2023/01/31 06:41:39;;;;;;;7.25;1.42;;;2.40;99.90;;;;;;5064495;28;20094;-65
2023/01/31 06:44:06;;;;;;;8.13;1.73;;;2.40;99.90;;;;;;5060427;28;20070;-67
2023/01/31 06:46:34;;;;;;;10.55;1.20;;;2.30;99.90;;;;;;5064853;28;20891;-62
2023/01/31 06:49:01;;;;;;;2.25;0.90;;;2.30;99.90;;;;;;5060849;28;20645;-63
2023/01/31 06:51:27;;;;;;;10.18;1.35;;;2.40;99.90;;;;;;5065106;28;20530;-63
2023/01/31 06:53:55;;;;;;;3.53;1.10;;;2.40;99.90;;;;;;5061106;28;20495;-65
2023/01/31 06:56:22;;;;;;;1.13;0.45;;;2.30;99.90;;;;;;5063270;28;20082;-65
2023/01/31 06:58:50;;;;;;;8.27;1.20;;;2.30;99.90;;;;;;5061420;28;20415;-67
2023/01/31 07:01:16;;;;;;;9.25;1.13;;;2.40;99.90;;;;;;5062911;28;20139;-67
2023/01/31 07:03:43;;;;;;;1.92;1.10;;;2.40;99.90;;;;;;5059395;28;20075;-65
2023/01/31 07:06:10;;;;;;;5.95;0.73;;;2.30;99.90;;;;;;5062951;28;20067;-66
2023/01/31 07:08:37;;;;;;;3.60;0.60;;;2.40;99.90;;;;;;5062473;28;20052;-67
2023/01/31 07:11:04;;;;;;;9.70;0.98;;;2.30;99.90;;;;;;5062043;28;20056;-67
2023/01/31 07:13:32;;;;;;;15.70;3.58;;;2.40;99.90;;;;;;5062828;28;20052;-64
2023/01/31 07:15:59;;;;;;;1.60;0.32;;;2.30;99.90;;;;;;5060421;28;20418;-66
2023/01/31 07:18:26;;;;;;;13.68;1.42;;;2.30;99.90;;;;;;5061036;28;20143;-63
2023/01/31 07:20:52;;;;;;;9.00;1.45;;;2.30;99.90;;;;;;5062088;28;20139;-64
2023/01/31 07:23:19;;;;;;;9.07;1.52;;;2.30;99.90;;;;;;5062043;28;20064;-64
2023/01/31 07:25:46;;;;;;;2.42;1.10;;;2.30;99.90;;;;;;5061289;28;20504;-63
2023/01/31 07:28:13;;;;;;;4.32;1.02;;;2.30;99.90;;;;;;5055009;28;20064;-64
2023/01/31 07:30:42;;;;;;;4.90;1.58;;;2.30;99.90;;;;;;5058672;28;20040;-67
2023/01/31 07:33:12;;;;;;;2.55;0.32;;;2.30;99.90;;;;;;5057277;28;20049;-66
2023/01/31 07:35:42;;;;;;;10.48;1.08;;;2.30;99.90;;;;;;5060360;28;20056;-68
2023/01/31 07:38:08;;;;;;;7.63;1.67;;;2.40;99.90;;;;;;5058432;28;20527;-72
2023/01/31 07:40:38;;;;;;;1.48;0.65;;;2.40;99.90;;;;;;5062189;28;20070;-64
2023/01/31 07:43:05;;;;;;;12.32;2.83;;;2.30;99.90;;;;;;5058389;28;20064;-67
2023/01/31 07:45:33;;;;;;;6.03;0.60;;;2.30;99.90;;;;;;5058678;28;20055;-66
2023/01/31 07:48:00;;;;;;;9.88;1.40;;;2.30;99.90;;;;;;5060838;28;20043;-63
2023/01/31 07:50:27;;;;;;;5.35;1.05;;;2.40;99.90;;;;;;5060259;28;20156;-69
2023/01/31 07:52:56;;;;;;;8.02;1.48;;;2.40;99.90;;;;;;5056883;28;20559;-71
2023/01/31 07:55:24;;;;;;;1.33;0.43;;;2.40;99.90;;;;;;5057022;28;20102;-66
2023/01/31 07:57:51;;;;;;;3.25;0.38;;;2.40;99.90;;;;;;5059309;28;20044;-65
2023/01/31 08:05:51;;;;;;;2.33;0.80;;;2.40;99.90;;;;;;5057615;28;20055;-64
2023/01/31 08:08:18;;;;;;;1.88;0.60;;;2.40;99.90;;;;;;5057723;28;20768;-66
2023/01/31 08:10:45;;;;;;;6.63;1.00;;;2.40;99.90;;;;;;5059885;28;20060;-72
2023/01/31 08:13:13;;;;;;;3.53;0.55;;;2.40;99.90;;;;;;5058459;28;20057;-64
2023/01/31 08:15:39;;;;;;;1.63;0.50;;;2.40;99.90;;;;;;5059428;28;20414;-66
2023/01/31 08:18:06;;;;;;;6.43;0.73;;;2.30;99.90;;;;;;5057992;28;20044;-72
2023/01/31 08:20:36;;;;;;;2.08;0.25;;;2.30;99.90;;;;;;5057570;28;20048;-63
2023/01/31 08:23:03;;;;;;;3.92;0.55;;;2.30;99.90;;;;;;5056651;28;20045;-64
2023/01/31 08:25:30;;;;;;;15.75;1.85;;;2.30;99.90;;;;;;5059719;28;20597;-66
2023/01/31 08:27:59;;;;;;;8.77;1.08;;;2.40;99.90;;;;;;5060865;28;20056;-64
2023/01/31 08:30:27;;;;;;;3.35;0.45;;;2.40;99.90;;;;;;5059757;28;20048;-63
2023/01/31 08:32:55;;;;;;;1.58;0.47;;;2.30;99.90;;;;;;5054811;28;20044;-67
2023/01/31 08:35:21;;;;;;;2.90;0.65;;;2.30;99.90;;;;;;5062891;28;20116;-64
2023/01/31 08:37:48;;;;;;;6.60;1.10;;;2.30;99.90;;;;;;5061864;28;20041;-64
2023/01/31 08:40:16;;;;;;;4.90;0.90;;;2.30;99.90;;;;;;5058971;28;20520;-68
2023/01/31 08:42:43;;;;;;;3.78;0.55;;;2.30;99.90;;;;;;5057906;28;20510;-66
2023/01/31 08:45:10;;;;;;;3.53;0.50;;;2.30;99.90;;;;;;5059782;28;20605;-64
2023/01/31 08:47:37;;;;;;;0.90;0.32;;;2.30;99.90;;;;;;5057378;28;20091;-72
2023/01/31 08:50:06;;;;;;;4.63;0.85;;;2.20;99.90;;;;;;5058369;28;20101;-64
2023/01/31 08:52:55;;;;;;;4.80;0.40;;;2.20;99.90;;;;;;5057671;28;20497;-67
2023/01/31 08:55:23;;;;;;;3.58;0.32;;;2.30;99.90;;;;;;5056423;28;20545;-64
2023/01/31 08:57:51;;;;;;;10.63;1.33;;;2.20;99.90;;;;;;5061065;28;20059;-64
2023/01/31 09:00:25;;;;;;;5.45;1.52;;;2.20;99.90;;;;;;5055208;28;20135;-64
2023/01/31 09:02:54;;;;;;;5.35;1.08;;;2.20;99.90;;;;;;5055592;28;20045;-64
2023/01/31 09:05:23;;;;;;;6.20;0.50;;;2.20;99.90;;;;;;5058419;28;20048;-67
2023/01/31 09:07:50;;;;;;;1.55;0.47;;;2.20;99.90;;;;;;5061761;28;20490;-65
2023/01/31 09:10:18;;;;;;;8.82;1.02;;;2.30;99.90;;;;;;5058321;28;20052;-67
2023/01/31 09:12:45;;;;;;;1.13;0.30;;;2.30;99.90;;;;;;5060011;28;20045;-70
2023/01/31 09:15:13;;;;;;;7.40;0.52;;;2.30;99.90;;;;;;5060466;28;20044;-66
2023/01/31 09:17:42;;;;;;;3.97;0.57;;;2.30;99.90;;;;;;5059353;28;20211;-70
2023/01/31 09:20:09;;;;;;;13.38;0.80;;;2.30;99.90;;;;;;5057782;28;20506;-70
2023/01/31 09:22:36;;;;;;;0.95;0.60;;;2.30;99.90;;;;;;5060437;28;20064;-65
2023/01/31 09:25:04;;;;;;;1.85;0.63;;;2.30;99.90;;;;;;5056044;28;20048;-64
2023/01/31 09:27:31;;;;;;;5.75;1.23;;;2.30;99.90;;;;;;5058854;28;20501;-65
2023/01/31 09:29:59;;;;;;;5.13;0.65;;;2.40;99.90;;;;;;5058345;28;20049;-66
2023/01/31 09:32:26;;;;;;;4.82;1.45;;;2.40;99.90;;;;;;5059390;28;20151;-64
2023/01/31 09:34:52;;;;;;;12.10;0.90;;;2.40;99.90;;;;;;5056952;28;20484;-69
2023/01/31 09:37:19;;;;;;;9.32;1.08;;;2.40;99.90;;;;;;5062367;28;20055;-65
2023/01/31 09:39:46;;;;;;;10.20;1.88;;;2.40;99.90;;;;;;5056819;28;20128;-65
2023/01/31 09:42:24;;;;;;;4.43;0.52;;;2.40;99.90;;;;;;5058497;28;20478;-65
2023/01/31 09:45:27;;;;;;;3.50;0.50;;;2.40;99.90;;;;;;5054357;28;20665;-65
2023/01/31 09:47:58;;;;;;;3.95;0.98;;;2.40;99.90;;;;;;5053789;28;20091;-67
2023/01/31 09:50:48;;;;;;;3.40;0.60;;;2.40;99.90;;;;;;5059477;28;20091;-63
2023/01/31 09:53:20;;;;;;;2.78;0.50;;;2.50;99.90;;;;;;5047511;28;20125;-64
2023/01/31 09:56:13;;;;;;;4.75;0.65;;;2.50;99.90;;;;;;5058903;28;20116;-65
2023/01/31 09:58:51;;;;;;;9.55;1.02;;;2.50;99.90;;;;;;5048847;28;20053;-68
2023/01/31 10:01:59;;;;;;;12.68;0.82;;;2.50;99.90;;;;;;5061338;28;20466;-68
2023/01/31 10:05:17;;;;;;;3.22;1.10;;;2.50;99.90;;;;;;5064043;28;20076;-64
2023/01/31 10:08:09;;;;;;;8.43;2.70;;;2.60;99.90;;;;;;5033280;28;20048;-66
2023/01/31 10:11:01;;;;;;;2.80;0.63;;;2.70;99.90;;;;;;5064819;28;20144;-72
2023/01/31 10:13:36;;;;;;;1.17;0.50;;;2.70;99.90;;;;;;5063248;28;20112;-64
2023/01/31 10:16:17;;;;;;;1.05;0.50;;;2.70;99.90;;;;;;5064186;28;20120;-64
2023/01/31 10:18:45;;;;;;;;;;;2.80;99.90;;;;;;5058627;28;20047;-68
2023/01/31 10:21:24;;;;;;;5.03;1.00;;;2.80;99.90;;;;;;5064022;28;19920;-65
2023/01/31 10:24:01;;;;;;;5.05;1.38;;;2.80;99.90;;;;;;5063554;28;20059;-67
2023/01/31 10:26:30;;;;;;;12.27;1.33;;;2.80;99.90;;;;;;5063642;28;20358;-66
2023/01/31 10:29:20;;;;;;;11.48;1.38;;;2.90;99.90;;;;;;5061277;28;20106;-64
2023/01/31 10:31:52;;;;;;;2.10;0.57;;;2.80;99.90;;;;;;5061014;28;20211;-66
2023/01/31 10:34:29;;;;;;;4.50;0.90;;;2.80;99.90;;;;;;5064651;28;20051;-64
2023/01/31 10:37:18;;;;;;;7.25;0.60;;;2.80;99.90;;;;;;5061576;28;20083;-68
2023/01/31 10:39:49;;;;;;;2.88;0.63;;;2.90;99.90;;;;;;5061248;28;20451;-65
2023/01/31 10:42:33;;;;;;;;;;;2.90;99.90;;;;;;5063936;28;20044;-66
2023/01/31 10:45:21;;;;;;;4.22;0.93;;;2.80;99.90;;;;;;5058430;28;19960;-70
2023/01/31 10:48:00;;;;;;;3.67;1.25;;;2.80;99.90;;;;;;5062870;28;20052;-68
2023/01/31 10:50:58;;;;;;;3.03;0.70;;;2.80;99.90;;;;;;5062664;28;20051;-64
2023/01/31 10:53:37;;;;;;;5.47;0.52;;;2.80;99.90;;;;;;5058672;28;20167;-67
2023/01/31 10:56:12;;;;;;;4.95;0.50;;;2.80;99.90;;;;;;5063336;28;20037;-67
2023/01/31 10:58:39;;;;;;;6.50;0.70;;;2.70;99.90;;;;;;5059545;28;20040;-65
2023/01/31 11:01:10;;;;;;;2.47;0.63;;;2.70;99.90;;;;;;5061973;28;20048;-68
2023/01/31 11:03:38;;;;;;;9.00;0.77;;;2.70;99.90;;;;;;5063246;28;20063;-64
2023/01/31 11:06:05;;;;;;;15.00;2.28;;;2.70;99.90;;;;;;5058760;28;20051;-65
2023/01/31 11:08:55;;;;;;;4.43;1.10;;;2.70;99.90;;;;;;5062660;28;20516;-68
2023/01/31 11:11:24;;;;;;;4.72;0.60;;;2.80;99.90;;;;;;5063228;28;20059;-68
2023/01/31 11:14:05;;;;;;;5.13;1.92;;;2.70;99.90;;;;;;5062728;28;20762;-72
2023/01/31 11:16:35;;;;;;;5.95;1.33;;;2.70;99.90;;;;;;5060683;28;20056;-67
2023/01/31 11:19:14;;;;;;;4.10;0.98;;;2.70;99.90;;;;;;5051576;28;20139;-63
2023/01/31 11:21:46;;;;;;;1.33;0.63;;;2.70;99.90;;;;;;5063338;28;20048;-64
2023/01/31 11:24:18;;;;;;;7.55;4.68;;;2.70;99.90;;;;;;5062746;28;20126;-69
2023/01/31 11:26:56;;;;;;;4.78;0.70;;;2.70;99.90;;;;;;5058440;28;20055;-64
2023/01/31 11:29:32;;;;;;;5.15;0.82;;;2.70;99.90;;;;;;5061395;28;20058;-69
2023/01/31 11:32:03;;;;;;;5.88;0.45;;;2.60;99.90;;;;;;5061560;28;20158;-70
2023/01/31 11:34:30;;;;;;;5.60;1.02;;;2.60;99.90;;;;;;5062187;28;20052;-64
2023/01/31 11:37:05;;;;;;;3.50;0.60;;;2.60;99.90;;;;;;5059175;28;20084;-65
2023/01/31 11:39:37;;;;;;;2.55;0.50;;;2.70;99.90;;;;;;5063624;28;20438;-64
2023/01/31 11:42:11;;;;;;;5.65;0.70;;;2.70;99.90;;;;;;5056146;28;20110;-65
2023/01/31 11:45:01;;;;;;;5.80;0.75;;;2.70;99.90;;;;;;5061873;28;20131;-64
2023/01/31 11:47:31;;;;;;;8.00;1.73;;;2.70;99.90;;;;;;5059751;28;20259;-66
2023/01/31 11:49:59;;;;;;;9.55;1.42;;;2.70;99.90;;;;;;5062395;28;20087;-63
2023/01/31 11:52:32;;;;;;;9.63;1.27;;;2.70;99.90;;;;;;5062585;28;20644;-63
2023/01/31 11:55:04;;;;;;;18.13;1.13;;;2.80;99.90;;;;;;5060389;28;20064;-63
2023/01/31 11:57:38;;;;;;;4.97;0.95;;;2.80;99.90;;;;;;5062587;28;20660;-67
2023/01/31 12:00:25;;;;;;;3.45;0.55;;;2.90;99.90;;;;;;5055936;28;20216;-64
2023/01/31 12:03:18;;;;;;;3.33;1.27;;;2.90;99.90;;;;;;5057154;28;20040;-65
2023/01/31 12:05:49;;;;;;;6.43;0.82;;;2.90;99.90;;;;;;5057903;28;20143;-65
2023/01/31 12:08:35;;;;;;;4.47;0.65;;;2.90;99.90;;;;;;5062084;28;20127;-64
2023/01/31 12:11:19;;;;;;;3.92;0.73;;;3.00;99.90;;;;;;5059493;28;20159;-65
2023/01/31 12:13:49;;;;;;;5.00;0.75;;;3.00;99.90;;;;;;5059780;28;20070;-65
2023/01/31 12:16:20;;;;;;;6.38;0.70;;;3.00;99.90;;;;;;5062289;28;20486;-63
2023/01/31 12:19:13;;;;;;;4.57;0.50;;;2.90;99.90;;;;;;5057713;28;20056;-64
2023/01/31 12:22:14;;;;;;;2.25;0.60;;;3.00;99.90;;;;;;5062724;28;20078;-64
2023/01/31 12:25:03;;;;;;;7.57;1.08;;;3.00;99.90;;;;;;5059200;28;20484;-66
2023/01/31 12:28:00;;;;;;;14.05;1.35;;;3.00;99.90;;;;;;5060326;28;20045;-65
2023/01/31 12:30:59;;;;;;;5.13;0.68;;;3.10;99.90;;;;;;5057343;28;20098;-64
2023/01/31 12:34:23;;;;;;;4.22;0.80;;;3.10;99.90;;;;;;5055918;28;20102;-63
2023/01/31 12:37:09;;;;;;;11.13;1.73;;;3.10;99.90;;;;;;5013784;28;20216;-64
2023/01/31 12:39:48;;;;;;;11.82;3.83;;;3.00;99.90;;;;;;5012677;28;20084;-63
2023/01/31 12:42:36;;;;;;;5.55;1.02;;;3.00;99.90;;;;;;5049720;28;20174;-64
2023/01/31 12:45:19;;;;;;;4.95;0.75;;;2.90;99.90;;;;;;5056287;28;20053;-64
2023/01/31 12:47:55;;;;;;;6.35;1.38;;;2.90;99.90;;;;;;5059448;28;20508;-66
2023/01/31 12:50:54;;;;;;;11.85;0.93;;;2.90;99.90;;;;;;5060885;28;20511;-66
2023/01/31 12:53:40;;;;;;;16.60;2.67;;;2.80;99.90;;;;;;5060746;28;20105;-72
2023/01/31 12:56:51;;;;;;;5.35;1.67;;;2.80;99.90;;;;;;5061698;28;20083;-63
2023/01/31 12:59:36;;;;;;;10.68;0.93;;;2.80;99.90;;;;;;5057777;28;20052;-66
2023/01/31 13:02:37;;;;;;;5.15;1.73;;;2.80;99.90;;;;;;5058873;28;20467;-66
2023/01/31 13:05:29;;;;;;;12.57;1.17;;;2.80;99.90;;;;;;5037835;28;20068;-66
2023/01/31 13:08:02;;;;;;;4.18;0.95;;;2.70;99.90;;;;;;5053372;28;20049;-64
2023/01/31 13:10:39;;;;;;;12.18;1.48;;;2.70;99.90;;;;;;5060434;28;20115;-66
2023/01/31 13:13:16;;;;;;;8.88;1.25;;;2.70;99.90;;;;;;5059120;28;20114;-66
2023/01/31 13:16:12;;;;;;;9.77;0.88;;;2.70;99.90;;;;;;5057827;28;20449;-70
2023/01/31 13:18:42;;;;;;;5.63;1.02;;;2.70;99.90;;;;;;5057997;28;20048;-67
2023/01/31 13:21:13;;;;;;;4.83;1.20;;;2.80;99.90;;;;;;5061627;28;20593;-66
2023/01/31 13:23:45;;;;;;;9.13;1.45;;;2.70;99.90;;;;;;5058712;28;20077;-65
2023/01/31 13:26:20;;;;;;;8.82;2.47;;;2.70;99.90;;;;;;5075208;28;20389;-65
2023/01/31 13:29:00;;;;;;;8.10;1.38;;;2.70;99.90;;;;;;5056396;28;20052;-66
2023/01/31 13:31:38;;;;;;;7.93;1.63;;;2.70;99.90;;;;;;5061052;28;20051;-69
2023/01/31 13:34:32;;;;;;;4.15;1.15;;;2.70;99.90;;;;;;5054163;28;20048;-69
2023/01/31 13:37:02;;;;;;;8.98;2.30;;;2.70;99.90;;;;;;5061670;28;20091;-67
2023/01/31 13:39:35;;;;;;;3.97;1.52;;;2.70;99.90;;;;;;5063916;28;20489;-66
2023/01/31 13:42:03;;;;;;;9.07;1.50;;;2.60;99.90;;;;;;5064509;28;20147;-69